createdAt,value
2018-06-22T00:00:48.601Z,11.30
2018-06-22T00:03:16.583Z,11.40
2018-06-22T00:05:45.601Z,11.40
2018-06-22T00:08:15.366Z,11.10
2018-06-22T00:10:44.559Z,11.10
2018-06-22T00:13:14.632Z,11.10
2018-06-22T00:18:14.603Z,10.90
2018-06-22T00:20:44.422Z,10.90
2018-06-22T00:23:14.295Z,11.00
2018-06-22T00:25:43.663Z,11.00
2018-06-22T00:28:14.120Z,10.90
2018-06-22T00:33:13.931Z,11.10
2018-06-22T00:35:43.627Z,11.00
2018-06-22T00:38:14.748Z,11.00
2018-06-22T00:40:48.034Z,10.90
2018-06-22T00:43:17.966Z,11.00
2018-06-22T00:45:47.550Z,11.00
2018-06-22T00:48:17.326Z,10.90
2018-06-22T00:56:11.582Z,10.70
2018-06-22T00:58:43.654Z,10.60
2018-06-22T01:01:18.782Z,10.50
2018-06-22T01:03:48.008Z,10.40
2018-06-22T01:06:18.833Z,10.40
2018-06-22T01:08:48.317Z,10.50
2018-06-22T01:11:16.619Z,10.60
2018-06-22T01:13:46.775Z,10.50
2018-06-22T01:18:43.828Z,10.60
2018-06-22T01:23:43.201Z,10.50
2018-06-22T01:26:12.002Z,10.50
2018-06-22T01:28:39.954Z,10.40
2018-06-22T01:31:08.179Z,10.60
2018-06-22T01:33:37.512Z,10.50
2018-06-22T01:36:08.606Z,10.60
2018-06-22T01:38:38.361Z,10.60
2018-06-22T01:41:11.024Z,10.60
2018-06-22T01:43:40.150Z,10.50
2018-06-22T01:46:08.759Z,10.50
2018-06-22T01:48:38.959Z,10.40
2018-06-22T01:51:09.011Z,10.30
2018-06-22T01:53:37.357Z,10.30
2018-06-22T01:56:05.353Z,10.30
2018-06-22T01:58:34.322Z,10.30
2018-06-22T02:01:03.709Z,10.20
2018-06-22T02:03:32.630Z,10.00
2018-06-22T02:06:03.448Z,10.10
2018-06-22T02:08:32.034Z,10.20
2018-06-22T02:11:00.609Z,10.20
2018-06-22T02:13:35.182Z,10.00
2018-06-22T02:16:03.488Z,10.10
2018-06-22T02:18:32.616Z,10.10
2018-06-22T02:21:01.517Z,10.10
2018-06-22T02:23:31.388Z,10.00
2018-06-22T02:25:59.415Z,9.90
2018-06-22T02:28:27.551Z,9.70
2018-06-22T02:30:55.556Z,9.60
2018-06-22T02:33:26.370Z,9.60
2018-06-22T02:35:55.280Z,9.60
2018-06-22T02:38:23.501Z,9.70
2018-06-22T02:40:52.064Z,9.60
2018-06-22T02:43:20.584Z,9.60
2018-06-22T02:45:49.590Z,9.60
2018-06-22T02:48:17.758Z,9.60
2018-06-22T02:50:46.598Z,9.70
2018-06-22T02:55:43.740Z,9.80
2018-06-22T02:58:12.691Z,9.80
2018-06-22T03:00:41.872Z,9.90
2018-06-22T03:03:10.291Z,9.50
2018-06-22T03:05:40.321Z,9.50
2018-06-22T03:08:08.374Z,9.70
2018-06-22T03:10:36.778Z,9.80
2018-06-22T03:15:35.665Z,9.80
2018-06-22T03:18:04.755Z,9.90
2018-06-22T03:20:33.920Z,9.90
2018-06-22T03:23:02.598Z,9.90
2018-06-22T03:25:31.274Z,10.00
2018-06-22T03:28:00.701Z,10.00
2018-06-22T03:30:30.208Z,9.80
2018-06-22T03:32:58.453Z,9.90
2018-06-22T03:35:26.499Z,10.00
2018-06-22T03:37:54.502Z,10.10
2018-06-22T03:40:23.365Z,10.00
2018-06-22T03:42:52.126Z,10.00
2018-06-22T03:45:20.483Z,9.90
2018-06-22T03:47:49.454Z,9.80
2018-06-22T03:50:18.267Z,10.00
2018-06-22T03:52:47.350Z,9.90
2018-06-22T03:55:15.815Z,9.80
2018-06-22T03:57:46.342Z,9.80
2018-06-22T04:00:14.346Z,9.70
2018-06-22T04:02:46.892Z,9.80
2018-06-22T04:05:15.214Z,9.80
2018-06-22T04:07:45.534Z,9.80
2018-06-22T04:10:14.677Z,9.90
2018-06-22T04:12:44.598Z,9.90
2018-06-22T04:15:13.692Z,9.90
2018-06-22T04:17:52.811Z,10.20
2018-06-22T04:20:22.709Z,10.10
2018-06-22T04:22:51.361Z,10.00
2018-06-22T04:25:21.675Z,10.20
2018-06-22T04:27:52.345Z,10.10
2018-06-22T04:30:21.626Z,10.20
2018-06-22T04:32:51.338Z,10.40
2018-06-22T04:35:22.201Z,10.30
2018-06-22T04:37:52.572Z,10.20
2018-06-22T04:40:21.683Z,10.20
2018-06-22T04:42:49.729Z,10.40
2018-06-22T04:45:18.599Z,10.60
2018-06-22T04:47:46.772Z,10.30
2018-06-22T04:50:14.771Z,10.40
2018-06-22T04:52:43.037Z,10.60
2018-06-22T04:55:11.492Z,10.70
2018-06-22T04:57:39.773Z,10.60
2018-06-22T05:02:36.522Z,10.80
2018-06-22T05:05:04.672Z,10.70
2018-06-22T05:07:33.334Z,10.70
2018-06-22T05:10:01.326Z,10.90
2018-06-22T05:14:57.956Z,10.90
2018-06-22T05:17:27.546Z,10.90
2018-06-22T05:19:55.635Z,11.10
2018-06-22T05:22:23.749Z,10.80
2018-06-22T05:24:52.155Z,10.70
2018-06-22T05:27:20.138Z,10.90
2018-06-22T05:29:48.206Z,11.10
2018-06-22T05:32:16.171Z,10.70
2018-06-22T05:34:44.385Z,10.60
2018-06-22T05:37:13.011Z,10.40
2018-06-22T05:39:41.369Z,10.60
2018-06-22T05:42:09.612Z,10.80
2018-06-22T05:44:38.371Z,10.70
2018-06-22T05:47:06.606Z,10.90
2018-06-22T05:49:34.663Z,10.70
2018-06-22T05:52:03.362Z,10.80
2018-06-22T05:54:31.349Z,10.60
2018-06-22T05:56:59.346Z,11.00
2018-06-22T05:59:27.578Z,11.10
2018-06-22T06:01:56.391Z,11.20
2018-06-22T06:04:24.466Z,11.10
2018-06-22T06:06:52.533Z,11.20
2018-06-22T06:09:20.910Z,10.90
2018-06-22T06:11:48.912Z,10.90
2018-06-22T06:14:18.505Z,11.00
2018-06-22T06:16:46.533Z,11.00
2018-06-22T06:19:14.579Z,11.00
2018-06-22T06:21:43.745Z,11.20
2018-06-22T06:24:12.655Z,11.20
2018-06-22T06:26:47.734Z,11.20
2018-06-22T06:29:15.772Z,11.20
2018-06-22T06:31:44.891Z,11.10
2018-06-22T06:34:13.858Z,10.90
2018-06-22T06:36:44.876Z,10.90
2018-06-22T06:39:13.119Z,10.80
2018-06-22T06:41:41.771Z,11.00
2018-06-22T06:44:09.813Z,10.80
2018-06-22T06:46:38.660Z,10.70
2018-06-22T06:49:06.973Z,10.50
2018-06-22T06:51:36.995Z,10.70
2018-06-22T06:54:05.081Z,10.70
2018-06-22T06:56:33.018Z,10.80
2018-06-22T06:59:01.573Z,10.80
2018-06-22T07:01:30.015Z,10.80
2018-06-22T07:03:59.776Z,10.70
2018-06-22T07:06:28.786Z,10.80
2018-06-22T07:08:56.803Z,10.90
2018-06-22T07:11:25.318Z,10.70
2018-06-22T07:13:53.731Z,10.60
2018-06-22T07:16:22.085Z,10.40
2018-06-22T07:18:51.955Z,10.50
2018-06-22T07:21:20.867Z,10.50
2018-06-22T07:23:50.944Z,10.50
2018-06-22T07:26:19.648Z,10.50
2018-06-22T07:28:47.829Z,10.50
2018-06-22T07:31:17.050Z,10.60
2018-06-22T07:33:45.243Z,10.70
2018-06-22T07:36:13.402Z,10.50
2018-06-22T07:38:42.520Z,10.50
2018-06-22T07:41:10.562Z,10.60
2018-06-22T07:43:39.249Z,10.60
2018-06-22T07:46:07.401Z,10.60
2018-06-22T07:48:35.469Z,10.80
2018-06-22T07:51:03.703Z,11.10
2018-06-22T07:53:33.015Z,10.80
2018-06-22T07:56:02.524Z,10.70
2018-06-22T07:58:31.056Z,10.80
2018-06-22T08:00:59.025Z,10.70
2018-06-22T08:03:27.822Z,10.80
2018-06-22T08:05:56.018Z,10.90
2018-06-22T08:08:24.235Z,10.90
2018-06-22T08:10:52.725Z,11.20
2018-06-22T08:13:20.709Z,11.20
2018-06-22T08:15:49.036Z,11.20
2018-06-22T08:18:17.083Z,11.30
2018-06-22T08:23:13.599Z,11.30
2018-06-22T08:25:41.642Z,11.40
2018-06-22T08:28:10.466Z,11.40
2018-06-22T08:30:38.650Z,11.40
2018-06-22T08:33:09.785Z,11.50
2018-06-22T08:35:37.866Z,11.40
2018-06-22T08:38:06.821Z,11.20
2018-06-22T08:40:34.811Z,11.50
2018-06-22T08:43:03.338Z,11.70
2018-06-22T08:47:59.814Z,11.60
2018-06-22T08:50:27.996Z,11.90
2018-06-22T08:52:56.409Z,11.90
2018-06-22T08:55:26.392Z,12.10
2018-06-22T08:57:54.626Z,12.20
2018-06-22T09:00:23.461Z,12.10
2018-06-22T09:02:52.768Z,12.10
2018-06-22T09:05:21.267Z,12.10
2018-06-22T09:07:51.044Z,12.20
2018-06-22T09:10:19.215Z,12.10
2018-06-22T09:12:47.229Z,12.20
2018-06-22T09:15:15.279Z,12.00
2018-06-22T09:17:44.042Z,11.90
2018-06-22T09:20:12.250Z,11.90
2018-06-22T09:22:40.383Z,11.80
2018-06-22T09:25:08.526Z,11.80
2018-06-22T09:27:37.414Z,11.70
2018-06-22T09:30:06.596Z,11.80
2018-06-22T09:32:35.250Z,11.90
2018-06-22T09:35:05.766Z,11.60
2018-06-22T09:37:34.756Z,11.70
2018-06-22T09:40:05.117Z,11.80
2018-06-22T09:42:33.375Z,12.00
2018-06-22T09:45:02.176Z,12.30
2018-06-22T09:47:30.417Z,12.10
2018-06-22T09:49:58.847Z,12.30
2018-06-22T09:52:27.654Z,12.80
2018-06-22T09:54:56.000Z,13.20
2018-06-22T09:57:26.294Z,13.60
2018-06-22T09:59:54.345Z,13.70
2018-06-22T10:02:22.727Z,14.40
2018-06-22T10:04:50.971Z,14.30
2018-06-22T10:07:20.434Z,14.10
2018-06-22T10:09:50.650Z,14.50
2018-06-22T10:12:18.851Z,14.00
2018-06-22T10:14:47.590Z,13.40
2018-06-22T10:17:15.762Z,13.30
2018-06-22T10:19:44.248Z,13.20
2018-06-22T10:22:12.257Z,13.10
2018-06-22T10:24:40.622Z,13.00
2018-06-22T10:27:08.895Z,13.40
2018-06-22T10:29:37.286Z,13.50
2018-06-22T10:32:05.570Z,13.60
2018-06-22T10:34:33.660Z,13.70
2018-06-22T10:37:03.042Z,13.70
2018-06-22T10:39:31.216Z,13.60
2018-06-22T10:41:59.278Z,13.30
2018-06-22T10:44:27.829Z,13.60
2018-06-22T10:46:56.629Z,13.50
2018-06-22T10:49:24.849Z,13.50
2018-06-22T10:51:53.156Z,13.80
2018-06-22T10:54:22.077Z,14.30
2018-06-22T10:56:50.337Z,14.20
2018-06-22T10:59:19.897Z,13.70
2018-06-22T11:01:48.943Z,13.50
2018-06-22T11:04:17.878Z,13.50
2018-06-22T11:06:46.655Z,13.40
2018-06-22T11:09:14.744Z,13.50
2018-06-22T11:11:43.098Z,13.40
2018-06-22T11:14:13.081Z,13.40
2018-06-22T11:16:44.170Z,13.40
2018-06-22T11:19:13.027Z,13.40
2018-06-22T11:21:41.811Z,13.50
2018-06-22T11:24:12.686Z,13.60
2018-06-22T11:26:42.599Z,13.40
2018-06-22T11:29:11.369Z,13.40
2018-06-22T11:31:41.647Z,13.60
2018-06-22T11:34:10.649Z,13.50
2018-06-22T11:36:41.015Z,13.30
2018-06-22T11:39:11.369Z,13.30
2018-06-22T11:41:41.374Z,13.40
2018-06-22T11:44:10.698Z,13.40
2018-06-22T11:46:41.959Z,13.50
2018-06-22T11:49:11.306Z,13.60
2018-06-22T11:51:42.618Z,13.60
2018-06-22T11:54:13.292Z,13.60
2018-06-22T11:56:43.015Z,13.50
2018-06-22T11:59:13.765Z,13.30
2018-06-22T12:01:41.985Z,13.20
2018-06-22T12:04:10.139Z,13.20
2018-06-22T12:06:39.173Z,13.20
2018-06-22T12:09:12.353Z,12.80
2018-06-22T12:11:41.322Z,12.80
2018-06-22T12:14:10.566Z,12.80
2018-06-22T12:16:38.641Z,12.80
2018-06-22T12:19:07.117Z,12.80
2018-06-22T12:21:35.510Z,12.90
2018-06-22T12:24:03.573Z,13.10
2018-06-22T12:26:32.482Z,13.30
2018-06-22T12:29:01.902Z,13.40
2018-06-22T12:31:33.622Z,13.70
2018-06-22T12:36:30.909Z,13.80
2018-06-22T12:38:58.874Z,13.60
2018-06-22T12:41:28.934Z,13.50
2018-06-22T12:43:58.794Z,13.70
2018-06-22T12:46:26.928Z,13.90
2018-06-22T12:48:56.269Z,13.90
2018-06-22T12:51:25.107Z,13.60
2018-06-22T12:53:53.874Z,13.70
2018-06-22T12:56:22.117Z,13.40
2018-06-22T12:58:50.847Z,13.50
2018-06-22T13:01:22.658Z,13.60
2018-06-22T13:06:19.064Z,13.50
2018-06-22T13:08:47.807Z,13.60
2018-06-22T13:11:15.906Z,13.70
2018-06-22T13:13:46.360Z,13.90
2018-06-22T13:16:17.442Z,14.10
2018-06-22T13:18:47.190Z,14.00
2018-06-22T13:21:15.332Z,14.30
2018-06-22T13:23:46.198Z,14.60
2018-06-22T13:26:14.668Z,14.70
2018-06-22T13:28:42.666Z,15.20
2018-06-22T13:31:14.296Z,15.40
2018-06-22T13:33:42.315Z,15.20
2018-06-22T13:36:10.666Z,15.30
2018-06-22T13:38:39.270Z,15.40
2018-06-22T13:41:07.360Z,15.40
2018-06-22T13:43:36.204Z,15.20
2018-06-22T13:46:04.607Z,15.00
2018-06-22T13:48:32.936Z,14.90
2018-06-22T13:51:01.414Z,15.00
2018-06-22T13:53:29.807Z,14.80
2018-06-22T13:55:57.982Z,14.80
2018-06-22T13:58:25.952Z,14.90
2018-06-22T14:00:54.527Z,14.70
2018-06-22T14:03:22.615Z,15.00
2018-06-22T14:05:56.346Z,15.20
2018-06-22T14:08:26.299Z,14.90
2018-06-22T14:11:03.496Z,15.00
2018-06-22T14:13:32.182Z,14.80
2018-06-22T14:16:01.594Z,15.00
2018-06-22T14:18:31.811Z,15.00
2018-06-22T14:21:01.145Z,14.70
2018-06-22T14:23:29.728Z,14.60
2018-06-22T14:26:00.760Z,14.60
2018-06-22T14:28:29.862Z,14.90
2018-06-22T14:30:59.003Z,14.90
2018-06-22T14:33:27.432Z,15.20
2018-06-22T14:35:56.367Z,15.20
2018-06-22T14:38:24.667Z,15.00
2018-06-22T14:40:52.838Z,15.10
2018-06-22T14:43:21.676Z,14.90
2018-06-22T14:45:50.189Z,14.40
2018-06-22T14:48:20.096Z,14.60
2018-06-22T14:50:48.420Z,14.70
2018-06-22T14:53:23.098Z,14.80
2018-06-22T14:55:57.251Z,14.70
2018-06-22T14:58:30.737Z,14.60
2018-06-22T15:01:04.217Z,14.70
2018-06-22T15:03:38.151Z,15.00
2018-06-22T15:06:13.629Z,15.20
2018-06-22T15:11:12.068Z,15.70
2018-06-22T15:13:41.347Z,15.80
2018-06-22T15:16:11.001Z,15.50
2018-06-22T15:18:39.557Z,15.50
2018-06-22T15:21:08.768Z,15.80
2018-06-22T15:23:37.158Z,15.90
2018-06-22T15:26:10.587Z,15.80
2018-06-22T15:28:41.423Z,15.70
2018-06-22T15:31:10.487Z,15.40
2018-06-22T15:33:44.160Z,15.30
2018-06-22T15:36:18.510Z,15.00
2018-06-22T15:38:52.169Z,15.00
2018-06-22T15:41:26.676Z,14.80
2018-06-22T15:44:00.580Z,14.90
2018-06-22T15:46:36.090Z,14.90
2018-06-22T15:49:10.380Z,14.80
2018-06-22T15:51:44.949Z,14.70
2018-06-22T15:54:22.611Z,14.60
2018-06-22T15:56:52.258Z,14.50
2018-06-22T15:59:20.676Z,14.50
2018-06-22T16:01:48.688Z,14.50
2018-06-22T16:04:16.910Z,14.50
2018-06-22T16:06:45.056Z,14.10
2018-06-22T16:09:13.441Z,13.40
2018-06-22T16:11:43.119Z,13.10
2018-06-22T16:16:25.399Z,13.00
2018-06-22T16:18:59.744Z,12.80
2018-06-22T16:21:33.418Z,12.90
2018-06-22T16:24:07.103Z,13.10
2018-06-22T16:26:40.539Z,13.20
2018-06-22T16:29:09.254Z,13.40
2018-06-22T16:31:38.038Z,13.40
2018-06-22T16:34:06.832Z,13.20
2018-06-22T16:36:36.003Z,13.30
2018-06-22T16:39:07.506Z,13.30
2018-06-22T16:41:35.954Z,13.40
2018-06-22T16:44:04.655Z,13.50
2018-06-22T16:46:34.058Z,13.60
2018-06-22T16:49:02.522Z,13.50
2018-06-22T16:51:30.759Z,13.60
2018-06-22T16:53:59.946Z,13.50
2018-06-22T16:56:29.227Z,13.50
2018-06-22T16:59:05.012Z,13.30
2018-06-22T17:01:33.274Z,13.30
2018-06-22T17:04:01.947Z,13.30
2018-06-22T17:06:36.362Z,13.40
2018-06-22T17:09:13.286Z,13.50
2018-06-22T17:11:47.398Z,13.60
2018-06-22T17:14:24.833Z,13.60
2018-06-22T17:17:00.350Z,13.60
2018-06-22T17:19:30.294Z,13.60
2018-06-22T17:22:03.338Z,13.60
2018-06-22T17:24:32.288Z,13.80
2018-06-22T17:27:01.772Z,13.90
2018-06-22T17:29:31.254Z,13.70
2018-06-22T17:32:00.619Z,13.70
2018-06-22T17:34:31.097Z,13.80
2018-06-22T17:39:31.094Z,13.70
2018-06-22T17:42:01.871Z,13.80
2018-06-22T17:44:33.088Z,13.70
2018-06-22T17:47:01.497Z,13.60
2018-06-22T17:49:36.090Z,13.50
2018-06-22T17:52:05.253Z,13.40
2018-06-22T17:54:33.694Z,13.40
2018-06-22T17:57:08.346Z,13.30
2018-06-22T17:59:42.149Z,13.20
2018-06-22T18:02:15.780Z,13.30
2018-06-22T18:04:45.641Z,13.20
2018-06-22T18:07:19.693Z,13.30
2018-06-22T18:09:53.702Z,13.30
2018-06-22T18:12:29.805Z,13.30
2018-06-22T18:14:58.768Z,13.30
2018-06-22T18:17:27.978Z,13.30
2018-06-22T18:19:57.627Z,13.30
2018-06-22T18:22:36.663Z,13.40
2018-06-22T18:25:05.704Z,13.30
2018-06-22T18:27:37.839Z,13.40
2018-06-22T18:30:12.184Z,13.40
2018-06-22T18:32:40.355Z,13.30
2018-06-22T18:35:11.466Z,13.40
2018-06-22T18:37:39.753Z,13.40
2018-06-22T18:40:09.672Z,13.40
2018-06-22T18:42:38.370Z,13.40
2018-06-22T18:45:08.544Z,13.50
2018-06-22T18:47:41.613Z,13.50
2018-06-22T18:52:45.703Z,13.60
2018-06-22T18:55:20.365Z,13.60
2018-06-22T18:57:53.810Z,13.60
2018-06-22T19:00:29.491Z,13.50
2018-06-22T19:03:03.274Z,13.60
2018-06-22T19:05:38.127Z,13.60
2018-06-22T19:08:06.288Z,13.60
2018-06-22T19:10:34.401Z,13.50
2018-06-22T19:13:04.470Z,13.50
2018-06-22T19:15:37.158Z,13.50
2018-06-22T19:18:08.459Z,13.40
2018-06-22T19:20:43.998Z,13.30
2018-06-22T19:23:18.614Z,13.20
2018-06-22T19:30:51.686Z,13.30
2018-06-22T19:33:20.423Z,13.20
2018-06-22T19:35:49.870Z,13.20
2018-06-22T19:38:19.066Z,13.20
2018-06-22T19:40:49.625Z,13.30
2018-06-22T19:43:25.454Z,13.30
2018-06-22T19:46:02.112Z,13.30
2018-06-22T19:48:39.246Z,13.30
2018-06-22T19:51:13.674Z,13.30
2018-06-22T19:56:29.051Z,13.20
2018-06-22T19:58:59.465Z,13.20
2018-06-22T20:01:27.823Z,13.20
2018-06-22T20:03:58.255Z,13.10
2018-06-22T20:06:27.829Z,13.00
2018-06-22T20:08:56.584Z,13.00
2018-06-22T20:11:25.075Z,13.00
2018-06-22T20:13:56.458Z,12.80
2018-06-22T20:16:29.124Z,12.80
2018-06-22T20:18:59.703Z,12.80
2018-06-22T20:21:37.732Z,12.80
2018-06-22T20:24:13.943Z,12.70
2018-06-22T20:26:46.785Z,12.60
2018-06-22T20:29:15.834Z,12.50
2018-06-22T20:31:45.819Z,12.40
2018-06-22T20:34:21.374Z,12.40
2018-06-22T20:36:55.360Z,12.40
2018-06-22T20:39:29.925Z,12.30
2018-06-22T20:42:05.538Z,12.30
2018-06-22T20:44:44.093Z,12.20
2018-06-22T20:47:18.708Z,12.10
2018-06-22T20:49:53.619Z,12.10
2018-06-22T20:52:22.945Z,12.10
2018-06-22T20:54:55.281Z,12.10
2018-06-22T20:57:28.809Z,12.10
2018-06-22T21:00:01.483Z,12.10
2018-06-22T21:02:31.016Z,12.00
2018-06-22T21:05:00.528Z,12.00
2018-06-22T21:07:28.779Z,12.00
2018-06-22T21:09:57.551Z,11.90
2018-06-22T21:14:57.390Z,11.90
2018-06-22T21:17:27.613Z,11.90
2018-06-22T21:19:56.920Z,11.90
2018-06-22T21:22:25.214Z,11.80
2018-06-22T21:24:55.474Z,11.80
2018-06-22T21:27:30.762Z,11.70
2018-06-22T21:30:05.364Z,11.80
2018-06-22T21:32:39.028Z,11.70
2018-06-22T21:35:14.570Z,11.70
2018-06-22T21:37:48.342Z,11.60
2018-06-22T21:40:17.705Z,11.50
2018-06-22T21:42:46.702Z,11.50
2018-06-22T21:45:16.683Z,11.50
2018-06-22T21:47:50.324Z,11.50
2018-06-22T21:50:22.107Z,11.50
2018-06-22T21:52:57.384Z,11.50
2018-06-22T21:55:26.877Z,11.60
2018-06-22T22:00:32.798Z,11.60
2018-06-22T22:03:01.681Z,11.60
2018-06-22T22:05:32.355Z,11.70
2018-06-22T22:08:00.463Z,11.70
2018-06-22T22:10:34.718Z,11.60
2018-06-22T22:15:39.565Z,11.60
2018-06-22T22:18:08.101Z,11.50
2018-06-22T22:20:38.133Z,11.70
2018-06-22T22:23:06.447Z,11.70
2018-06-22T22:25:36.744Z,11.70
2018-06-22T22:28:05.038Z,11.70
2018-06-22T22:30:33.339Z,11.50
2018-06-22T22:33:04.306Z,11.30
2018-06-22T22:35:33.084Z,11.30
2018-06-22T22:38:03.109Z,11.30
2018-06-22T22:40:33.639Z,11.40
2018-06-22T22:45:37.087Z,11.40
2018-06-22T22:48:06.769Z,11.30
2018-06-22T22:50:38.834Z,11.10
2018-06-22T22:53:08.726Z,11.00
2018-06-22T22:55:37.886Z,11.10
2018-06-22T22:58:06.285Z,11.20
2018-06-22T23:00:36.884Z,11.20
2018-06-22T23:03:04.882Z,11.40
2018-06-22T23:05:35.661Z,11.40
2018-06-22T23:08:07.801Z,11.40
2018-06-22T23:13:05.347Z,11.50
2018-06-22T23:15:35.667Z,11.50
2018-06-22T23:18:05.065Z,11.40
2018-06-22T23:20:35.351Z,11.40
2018-06-22T23:23:14.373Z,11.40
2018-06-22T23:25:44.044Z,11.30
2018-06-22T23:28:12.095Z,11.30
2018-06-22T23:30:42.128Z,11.20
2018-06-22T23:33:11.393Z,11.20
2018-06-22T23:35:39.546Z,11.20
2018-06-22T23:38:07.982Z,11.10
2018-06-22T23:40:35.980Z,11.00
2018-06-22T23:43:04.560Z,11.00
2018-06-22T23:45:32.774Z,11.00
2018-06-22T23:48:03.449Z,10.90
2018-06-22T23:53:04.093Z,10.60
2018-06-22T23:55:33.311Z,10.60
2018-06-22T23:58:02.133Z,10.70
